Union Star, KY (40171)

8:46 PM CDT on July 23, 2014 (GMT -0500)
Old Weldon (KKYBRAND4) Elev 636 ft | 37.97 °N, 86.13 °W | Change Station

Current weather conditions updated 53 seconds ago

Overcast
Overcast
76.1 °F
Feels Like 77 °F
N
0.0
Wind Variable Wind from NNW
Gusts 0.0 mph

Tomorrow is forecast to be Cooler than today.

Today
High -- | Low -- °F
--% Chance of Precip.
Yesterday
High -- | Low -- °F
Precip. -- in
5:41 AM 8:02 PM
Waning Crescent, 7% visible
Pressure 29.97 in
Visibility 7.0 miles
Clouds Few 2800 ft
Scattered Clouds 3500 ft
Mostly Cloudy 9500 ft
Heat Index 77 °F
Dew Point 71 °F
Humidity 84%
Rainfall 0.00 in
Snow Depth Not available.
UV 0 out of 12
Pollen 4.80 out of 12
Ozone Good
PM2.5 Moderate
Flu Activity Not available.
METAR KFTK 240058Z AUTO 29004KT 7SM FEW028 SCT035 BKN095 25/22 A2998 RMK AO2 SLP148 T02520218

More Conditions Fewer Conditions

Pressure 29.97 in
Visibility 7.0 miles
Clouds Few 2800 ft
Scattered Clouds 3500 ft
Mostly Cloudy 9500 ft
Heat Index 77 °F
Dew Point 71 °F
Humidity 84%
Rainfall 0.00 in
Snow Depth Not available.
UV 0 out of 12
Pollen 4.80 out of 12
Ozone Good
PM2.5 Moderate
Flu Activity Not available.
METAR KFTK 240058Z AUTO 29004KT 7SM FEW028 SCT035 BKN095 25/22 A2998 RMK AO2 SLP148 T02520218

More Conditions Fewer Conditions

10-Day Weather Forecast

Almanac

Astronomy

Jul. 23, 2014 Rise Set
Actual Time 5:41 AM CDT 8:02 PM CDT
Civil Twilight 5:11 AM CDT 8:32 PM CDT
Nautical Twilight 4:34 AM CDT 9:09 PM CDT
Astronomical Twilight 3:53 AM CDT 9:49 PM CDT
Moon 2:59 AM CDT (7/23) 5:31 PM CDT (7/23)
Length of Visible Light 15h 21m
Length of Day
14h 21m
Tomorrow will be 1m 34s shorter.
Waning Crescent, 7% of the Moon is Illuminated
Today
Waning Crescent
Jul 26
New
Aug 3
First Quarter
Aug 10
Full
Aug 17
Last Quarter

Today's Extremes

State Highs State Lows

Community

WunderPhotos

Upload Photos

1,736,843 photos uploaded!

Nearby

Air Quality

  Air Quality AQ Index Pollutant
Yesterday Good
PM10
Yesterday Moderate
OZONE
Current Moderate
PM2.5
Current Good
OZONE
Wednesday Moderate
PM2.5
Wednesday Good
OZONE
Thursday Good
OZONE
Thursday Good
PM2.5
Friday Moderate
OZONE
Friday Good
PM2.5

Snow Depth

Station Depth Elevation
No new snow has been reported.

Earthquake Activity

City Distance Mag. Time & Date
No recent earthquake activity has been reported nearby.
Minimum magnitude displayed is 2.5.

Coastal Water Temperatures

Place Temperature
No Stations Reporting

Nearby Weather Stations

Station Location Temp. Heat Index Dew Point Humidity Wind Precip. Elev Updated Type
Old Weldon, Brandenburg, KY 76.1 °F 77 °F 71 °F 84% NNW  at  0.0 mph 0.00 in / hr 636 ft 9:45 PM EDT Normal
Farmington Estates, Vine Grove, KY 75.6 °F 76 °F 70 °F 83% South  at  0.0 mph - / hr 669 ft 9:45 PM EDT Normal

Show More Stations Show Fewer Stations